Time;durP1;ratioP1;P1;durP2;ratioP2;P2;SDS_P1;SDS_P2;PMS_P1;PMS_P2;Temp;Humidity;BMP_temperature;BMP_pressure;BME280_temperature;BME280_humidity;BME280_pressure;Samples;Min_cycle;Max_cycle;Signal;HPM_P1;HPM_P2
2022/10/12 00:00:44;;;;;;;4.90;3.28;;;8.10;99.90;;;;;;5052361;28;20045;-70
2022/10/12 00:03:11;;;;;;;5.20;3.22;;;8.20;99.90;;;;;;5052179;28;20080;-71
2022/10/12 00:05:37;;;;;;;5.22;3.10;;;7.90;99.90;;;;;;5052757;28;20092;-71
2022/10/12 00:08:03;;;;;;;4.82;2.88;;;7.90;99.90;;;;;;5052830;28;20409;-71
2022/10/12 00:10:29;;;;;;;5.32;3.30;;;8.10;99.90;;;;;;5052108;28;20477;-71
2022/10/12 00:12:55;;;;;;;6.97;3.10;;;8.20;99.90;;;;;;5051949;28;20102;-71
2022/10/12 00:15:20;;;;;;;5.05;3.70;;;8.00;99.90;;;;;;5053329;28;20047;-71
2022/10/12 00:17:46;;;;;;;4.57;3.30;;;8.20;99.90;;;;;;5052907;28;20045;-71
2022/10/12 00:20:12;;;;;;;4.90;2.67;;;7.90;99.90;;;;;;5053150;28;20120;-71
2022/10/12 00:22:38;;;;;;;5.28;2.97;;;8.00;99.90;;;;;;5053227;28;20056;-71
2022/10/12 00:25:04;;;;;;;5.15;3.25;;;8.10;99.90;;;;;;5053168;28;20041;-71
2022/10/12 00:27:29;;;;;;;4.10;3.13;;;8.00;99.90;;;;;;5051884;28;20044;-71
2022/10/12 00:29:55;;;;;;;5.05;3.30;;;8.70;99.90;;;;;;5051865;28;20480;-70
2022/10/12 00:32:21;;;;;;;4.57;3.15;;;8.40;99.90;;;;;;5051745;28;20574;-71
2022/10/12 00:34:46;;;;;;;3.75;3.20;;;8.60;99.90;;;;;;5053285;28;20084;-71
2022/10/12 00:37:12;;;;;;;4.25;2.90;;;8.20;99.90;;;;;;5052380;28;20093;-71
2022/10/12 00:39:38;;;;;;;7.18;3.17;;;8.30;99.90;;;;;;5052411;28;20048;-71
2022/10/12 00:42:03;;;;;;;5.28;2.92;;;8.20;99.90;;;;;;5053028;28;20397;-71
2022/10/12 00:44:45;;;;;;;6.88;3.28;;;8.20;99.90;;;;;;5056239;28;20118;-71
2022/10/12 00:47:25;;;;;;;4.57;2.88;;;8.20;99.90;;;;;;5055575;28;20056;-71
2022/10/12 00:50:08;;;;;;;7.35;3.42;;;8.20;99.90;;;;;;5056692;28;20041;-70
2022/10/12 00:53:00;;;;;;;4.75;2.90;;;8.20;99.90;;;;;;5055473;28;20130;-71
2022/10/12 00:55:29;;;;;;;4.68;2.97;;;8.30;99.90;;;;;;5055029;28;20049;-71
2022/10/12 00:57:55;;;;;;;6.53;3.40;;;8.00;99.90;;;;;;5056519;28;20048;-71
2022/10/12 01:00:22;;;;;;;5.00;3.05;;;8.30;99.90;;;;;;5056930;28;20049;-71
2022/10/12 01:02:50;;;;;;;7.60;3.35;;;8.20;99.90;;;;;;5056375;28;20052;-71
2022/10/12 01:05:17;;;;;;;5.13;3.47;;;8.10;99.90;;;;;;5054856;28;20118;-71
2022/10/12 01:07:43;;;;;;;6.28;3.65;;;8.00;99.90;;;;;;5056239;28;20081;-71
2022/10/12 01:10:09;;;;;;;7.03;3.10;;;8.10;99.90;;;;;;5056222;28;20111;-71
2022/10/12 01:12:36;;;;;;;3.67;2.70;;;8.40;99.90;;;;;;5055116;28;20444;-71
2022/10/12 01:15:03;;;;;;;5.72;3.40;;;8.10;99.90;;;;;;5055125;28;20515;-70
2022/10/12 01:17:40;;;;;;;6.28;2.85;;;8.00;99.90;;;;;;5056034;28;20426;-70
2022/10/12 01:20:21;;;;;;;6.68;3.15;;;8.20;99.90;;;;;;5055038;28;20059;-71
2022/10/12 01:23:07;;;;;;;5.50;3.20;;;7.90;99.90;;;;;;5054629;28;20045;-71
2022/10/12 01:26:00;;;;;;;6.25;2.97;;;8.00;99.90;;;;;;5056273;28;20500;-71
2022/10/12 01:28:57;;;;;;;5.53;3.47;;;8.00;99.90;;;;;;5038469;28;20512;-71
2022/10/12 01:31:39;;;;;;;4.35;2.90;;;7.90;99.90;;;;;;5055983;28;20041;-71
2022/10/12 01:34:15;;;;;;;6.40;3.00;;;8.00;99.90;;;;;;5055935;28;20412;-70
2022/10/12 01:36:48;;;;;;;5.18;3.25;;;8.00;99.90;;;;;;5055224;28;20049;-70
2022/10/12 01:39:17;;;;;;;3.58;3.13;;;7.80;99.90;;;;;;5054439;28;20060;-71
2022/10/12 01:41:59;;;;;;;3.88;2.95;;;8.00;99.90;;;;;;5055679;28;20045;-70
2022/10/12 01:44:26;;;;;;;3.45;2.53;;;8.30;99.90;;;;;;5055645;28;20075;-71
2022/10/12 01:46:54;;;;;;;3.60;2.97;;;8.00;99.90;;;;;;5055473;28;20390;-71
2022/10/12 01:49:24;;;;;;;6.40;3.67;;;8.10;99.90;;;;;;5055401;28;20041;-70
2022/10/12 01:52:18;;;;;;;3.97;2.80;;;8.20;99.90;;;;;;5055211;28;20127;-71
2022/10/12 01:55:07;;;;;;;3.72;3.35;;;7.60;99.90;;;;;;5055621;28;20187;-71
2022/10/12 01:57:46;;;;;;;2.83;2.30;;;8.10;99.90;;;;;;5055328;28;20041;-70
2022/10/12 02:00:15;;;;;;;4.72;2.83;;;7.80;99.90;;;;;;5055172;28;20132;-71
2022/10/12 02:02:49;;;;;;;4.55;2.72;;;8.00;99.90;;;;;;5055310;28;20048;-70
2022/10/12 02:05:45;;;;;;;3.58;2.88;;;7.70;99.90;;;;;;5055427;28;20052;-73
2022/10/12 02:08:17;;;;;;;4.43;2.75;;;7.80;99.90;;;;;;5054970;28;20049;-71
2022/10/12 02:10:55;;;;;;;4.18;2.70;;;8.20;99.90;;;;;;5053950;28;20060;-72
2022/10/12 02:13:24;;;;;;;4.05;2.70;;;7.90;99.90;;;;;;5054702;28;20091;-71
2022/10/12 02:15:52;;;;;;;3.78;2.88;;;7.90;99.90;;;;;;5054027;28;20393;-71
2022/10/12 02:18:19;;;;;;;4.28;2.13;;;7.70;99.90;;;;;;5054120;28;20045;-71
2022/10/12 02:20:52;;;;;;;4.45;2.65;;;7.80;99.90;;;;;;5054833;28;20052;-71
2022/10/12 02:23:20;;;;;;;3.00;2.30;;;7.90;99.90;;;;;;5055175;28;20052;-71
2022/10/12 02:25:46;;;;;;;2.75;2.28;;;7.60;99.90;;;;;;5054923;28;20054;-71
2022/10/12 02:28:16;;;;;;;5.43;2.90;;;8.00;99.90;;;;;;5054355;28;20075;-70
2022/10/12 02:31:06;;;;;;;3.25;2.50;;;7.80;99.90;;;;;;5054717;28;20095;-70
2022/10/12 02:33:41;;;;;;;3.65;2.30;;;7.50;99.90;;;;;;5054454;28;20127;-71
2022/10/12 02:36:19;;;;;;;4.55;2.67;;;7.50;99.90;;;;;;5054183;28;20049;-70
2022/10/12 02:39:11;;;;;;;6.05;2.55;;;7.70;99.90;;;;;;5054607;28;20535;-71
2022/10/12 02:41:42;;;;;;;4.40;2.42;;;7.50;99.90;;;;;;5053582;28;20052;-71
2022/10/12 02:44:12;;;;;;;3.67;2.42;;;7.80;99.90;;;;;;5054628;28;20056;-71
2022/10/12 02:46:39;;;;;;;4.35;2.53;;;8.10;99.90;;;;;;5054921;28;20048;-70
2022/10/12 02:49:06;;;;;;;4.07;2.50;;;8.00;99.90;;;;;;5054640;28;20141;-70
2022/10/12 02:51:33;;;;;;;4.43;2.63;;;8.20;99.90;;;;;;5053063;28;20044;-70
2022/10/12 02:53:59;;;;;;;5.78;2.53;;;7.50;99.90;;;;;;5054299;28;20045;-70
2022/10/12 02:56:25;;;;;;;4.97;2.08;;;7.50;99.90;;;;;;5052927;28;20053;-70
2022/10/12 02:58:52;;;;;;;6.30;2.45;;;;;;;;;;5054318;28;20139;-70
2022/10/12 03:01:18;;;;;;;7.13;2.90;;;;;;;;;;5053232;28;20140;-70
2022/10/12 03:03:45;;;;;;;5.35;2.78;;;;;;;;;;5054104;28;20045;-70
2022/10/12 03:06:11;;;;;;;4.13;3.05;;;;;;;;;;5035560;28;20059;-70
2022/10/12 03:08:37;;;;;;;8.13;3.33;;;7.50;99.90;;;;;;5052802;28;20409;-70
2022/10/12 03:11:08;;;;;;;6.78;3.20;;;7.30;99.90;;;;;;5053651;28;20053;-71
2022/10/12 03:13:34;;;;;;;6.15;3.58;;;7.30;99.90;;;;;;5054265;28;20056;-70
2022/10/12 03:16:04;;;;;;;5.68;3.33;;;7.70;99.90;;;;;;5053952;28;20041;-71
2022/10/12 03:18:31;;;;;;;7.20;3.47;;;;;;;;;;5053869;28;20049;-70
2022/10/12 03:20:57;;;;;;;5.63;2.60;;;7.60;99.90;;;;;;5052678;28;20041;-70
2022/10/12 03:23:23;;;;;;;8.27;3.00;;;7.60;99.90;;;;;;5036046;28;20120;-71
2022/10/12 03:25:49;;;;;;;5.22;2.97;;;7.60;99.90;;;;;;5054085;28;20110;-70
2022/10/12 03:28:14;;;;;;;5.15;2.47;;;7.70;99.90;;;;;;5052657;28;20090;-71
2022/10/12 03:30:41;;;;;;;4.88;2.80;;;7.80;99.90;;;;;;5052506;28;20129;-70
2022/10/12 03:33:08;;;;;;;8.00;3.22;;;;;;;;;;5035908;28;20059;-70
2022/10/12 03:35:34;;;;;;;7.72;3.22;;;7.50;99.90;;;;;;5052949;28;20084;-71
2022/10/12 03:38:01;;;;;;;4.88;3.05;;;;;;;;;;5052196;28;20452;-71
2022/10/12 03:40:26;;;;;;;6.13;3.33;;;7.70;99.90;;;;;;5052493;28;20045;-71
2022/10/12 03:42:52;;;;;;;4.47;2.95;;;8.00;99.90;;;;;;5053838;28;20041;-71
2022/10/12 03:45:18;;;;;;;5.47;3.17;;;7.80;99.90;;;;;;5052492;28;20053;-70
2022/10/12 03:47:43;;;;;;;8.30;4.03;;;7.80;99.90;;;;;;5053498;28;20041;-70
2022/10/12 03:50:09;;;;;;;5.95;3.20;;;8.00;99.90;;;;;;5053400;28;20381;-70
2022/10/12 03:52:35;;;;;;;7.20;3.38;;;8.10;99.90;;;;;;5053380;28;20472;-71
2022/10/12 03:55:02;;;;;;;5.40;3.88;;;;;;;;;;5053441;28;20102;-71
2022/10/12 03:57:27;;;;;;;5.47;3.55;;;7.70;99.90;;;;;;5053282;28;20095;-70
2022/10/12 03:59:53;;;;;;;4.47;3.13;;;8.00;99.90;;;;;;5052027;28;20045;-71
2022/10/12 04:02:19;;;;;;;4.88;3.38;;;7.70;99.90;;;;;;5052204;28;20053;-70
2022/10/12 04:04:46;;;;;;;8.23;3.75;;;;;;;;;;5053052;28;20132;-70
2022/10/12 04:07:11;;;;;;;7.50;4.10;;;7.60;99.90;;;;;;5051412;28;20089;-71
2022/10/12 04:09:37;;;;;;;7.93;3.85;;;7.90;99.90;;;;;;5053345;28;20111;-70
2022/10/12 04:12:03;;;;;;;6.00;3.97;;;7.60;99.90;;;;;;5051982;28;20168;-70
2022/10/12 04:14:28;;;;;;;6.30;3.90;;;7.70;99.90;;;;;;5053256;28;20041;-70
2022/10/12 04:16:54;;;;;;;8.60;6.03;;;7.60;99.90;;;;;;5052117;28;20385;-71
2022/10/12 04:19:20;;;;;;;6.10;5.20;;;7.40;99.90;;;;;;5056367;28;20048;-71
2022/10/12 04:21:47;;;;;;;8.60;5.60;;;;;;;;;;5056004;28;20087;-71
2022/10/12 04:24:13;;;;;;;8.05;5.80;;;7.50;99.90;;;;;;5057850;28;20056;-70
2022/10/12 04:26:38;;;;;;;9.50;6.57;;;7.60;99.90;;;;;;5056173;28;20132;-70
2022/10/12 04:29:07;;;;;;;8.45;6.07;;;;;;;;;;5057204;28;20052;-70
2022/10/12 04:31:32;;;;;;;7.68;5.93;;;7.50;99.90;;;;;;5056898;28;20092;-70
2022/10/12 04:33:58;;;;;;;8.68;6.25;;;7.50;99.90;;;;;;5056810;28;20076;-70
2022/10/12 04:36:24;;;;;;;7.53;5.40;;;7.40;99.90;;;;;;5055368;28;20099;-71
2022/10/12 04:38:51;;;;;;;5.93;5.30;;;7.30;99.90;;;;;;5057227;28;20049;-71
2022/10/12 04:41:16;;;;;;;9.82;5.20;;;7.70;99.90;;;;;;5056925;28;20041;-71
2022/10/12 04:43:42;;;;;;;6.65;4.60;;;7.30;99.90;;;;;;5039238;28;20515;-71
2022/10/12 04:46:08;;;;;;;8.95;4.93;;;7.90;99.90;;;;;;5056642;28;20045;-71
2022/10/12 04:48:34;;;;;;;6.90;4.20;;;7.80;99.90;;;;;;5056709;28;20048;-71
2022/10/12 04:50:59;;;;;;;7.47;3.90;;;7.40;99.90;;;;;;5038561;28;20044;-72
2022/10/12 04:53:25;;;;;;;7.18;4.63;;;7.50;99.90;;;;;;5056372;28;20045;-71
2022/10/12 04:55:51;;;;;;;5.90;3.67;;;7.50;99.90;;;;;;5056678;28;20041;-71
2022/10/12 04:58:16;;;;;;;7.57;3.78;;;7.50;99.90;;;;;;5056476;28;20378;-71
2022/10/12 05:00:42;;;;;;;7.70;4.45;;;8.00;99.90;;;;;;5055291;28;20045;-70
2022/10/12 05:03:08;;;;;;;7.53;4.38;;;7.40;99.90;;;;;;5056584;28;20041;-71
2022/10/12 05:05:34;;;;;;;7.38;4.80;;;7.90;99.90;;;;;;5054496;28;20497;-71
2022/10/12 05:08:01;;;;;;;7.90;4.40;;;7.50;99.90;;;;;;5055911;28;20048;-71
2022/10/12 05:10:27;;;;;;;7.72;4.80;;;7.80;99.90;;;;;;5056297;28;20516;-70
2022/10/12 05:12:52;;;;;;;8.77;5.22;;;7.50;99.90;;;;;;5055371;28;20127;-70
2022/10/12 05:15:18;;;;;;;10.00;5.25;;;7.60;99.90;;;;;;5056227;28;20484;-70
2022/10/12 05:17:44;;;;;;;10.07;5.15;;;7.50;99.90;;;;;;5056242;28;20504;-71
2022/10/12 05:20:10;;;;;;;8.95;5.05;;;7.50;99.90;;;;;;5055963;28;20040;-71
2022/10/12 05:22:36;;;;;;;7.22;4.78;;;7.40;99.90;;;;;;5038325;28;20085;-70
2022/10/12 05:25:03;;;;;;;8.13;5.03;;;7.40;99.90;;;;;;5055816;28;20063;-70
2022/10/12 05:27:28;;;;;;;8.80;5.78;;;7.60;99.90;;;;;;5056111;28;20049;-70
2022/10/12 05:29:54;;;;;;;8.95;5.05;;;7.80;99.90;;;;;;5055505;28;20037;-70
2022/10/12 05:32:20;;;;;;;8.98;4.72;;;7.50;99.90;;;;;;5038012;28;20052;-71
2022/10/12 05:34:46;;;;;;;7.65;4.75;;;7.70;99.90;;;;;;5038261;28;20049;-71
2022/10/12 05:37:12;;;;;;;10.30;5.45;;;8.00;99.90;;;;;;5053835;28;20045;-70
2022/10/12 05:39:38;;;;;;;10.82;5.35;;;7.30;99.90;;;;;;5056296;28;20052;-70
2022/10/12 05:42:04;;;;;;;8.48;5.30;;;7.80;99.90;;;;;;5055802;28;20120;-70
2022/10/12 05:44:32;;;;;;;6.07;5.32;;;7.40;99.90;;;;;;5055646;28;20045;-70
2022/10/12 05:46:58;;;;;;;9.70;5.88;;;7.60;99.90;;;;;;5055665;28;20037;-71
2022/10/12 05:49:24;;;;;;;9.27;5.43;;;7.50;99.90;;;;;;5055437;28;20068;-71
2022/10/12 05:51:50;;;;;;;7.60;5.30;;;7.70;99.90;;;;;;5037787;28;20049;-70
2022/10/12 05:54:15;;;;;;;9.68;5.72;;;7.70;99.90;;;;;;5055526;28;20045;-70
2022/10/12 05:56:41;;;;;;;9.05;5.38;;;7.70;99.90;;;;;;5038225;28;20536;-70
2022/10/12 05:59:07;;;;;;;8.63;5.70;;;7.30;99.90;;;;;;5055419;28;20049;-70
2022/10/12 06:01:33;;;;;;;7.95;5.63;;;7.70;99.90;;;;;;5054224;28;20554;-71
2022/10/12 06:03:58;;;;;;;8.80;5.20;;;6.90;99.90;;;;;;5055094;28;20512;-72
2022/10/12 06:06:24;;;;;;;8.63;5.85;;;7.30;99.90;;;;;;5053301;28;20053;-71
2022/10/12 06:08:50;;;;;;;11.52;5.75;;;7.70;99.90;;;;;;5054826;28;20148;-71
2022/10/12 06:11:16;;;;;;;9.15;5.35;;;6.70;99.90;;;;;;5055073;28;20080;-70
2022/10/12 06:13:41;;;;;;;8.50;5.40;;;7.50;99.90;;;;;;5054100;28;20119;-70
2022/10/12 06:16:07;;;;;;;7.85;6.30;;;7.60;99.90;;;;;;5055144;28;20041;-71
2022/10/12 06:18:33;;;;;;;8.65;5.80;;;7.40;99.90;;;;;;5053822;28;20085;-71
2022/10/12 06:20:59;;;;;;;8.63;5.75;;;;;;;;;;5055052;28;20051;-71
2022/10/12 06:23:25;;;;;;;12.57;6.20;;;7.20;99.90;;;;;;5053829;28;20049;-71
2022/10/12 06:25:51;;;;;;;7.60;5.43;;;7.60;99.90;;;;;;5054816;28;20044;-71
2022/10/12 06:28:19;;;;;;;10.23;6.00;;;;;;;;;;5054158;28;20052;-71
2022/10/12 06:30:46;;;;;;;7.68;5.60;;;7.20;99.90;;;;;;5036960;28;20090;-70
2022/10/12 06:33:11;;;;;;;10.57;5.90;;;7.40;99.90;;;;;;5054383;28;20055;-71
2022/10/12 06:35:37;;;;;;;11.77;5.53;;;7.30;99.90;;;;;;5054178;28;20045;-71
2022/10/12 06:38:03;;;;;;;10.05;5.40;;;7.30;99.90;;;;;;5053589;28;20044;-71
2022/10/12 06:40:29;;;;;;;8.52;6.05;;;7.20;99.90;;;;;;5053733;28;20443;-71
2022/10/12 06:42:54;;;;;;;9.68;6.10;;;7.30;99.90;;;;;;5054465;28;20041;-71
2022/10/12 06:45:20;;;;;;;11.30;6.25;;;7.40;99.90;;;;;;5036794;28;20049;-70
2022/10/12 06:47:46;;;;;;;9.98;5.90;;;7.20;99.90;;;;;;5054268;28;20045;-71
2022/10/12 06:50:12;;;;;;;8.95;6.07;;;7.30;99.90;;;;;;5054031;28;20068;-71
2022/10/12 06:52:38;;;;;;;10.10;6.03;;;7.50;99.90;;;;;;5054412;28;20077;-71
2022/10/12 06:55:04;;;;;;;9.85;6.07;;;7.20;99.90;;;;;;5053257;28;20063;-71
2022/10/12 06:57:30;;;;;;;9.48;6.65;;;7.30;99.90;;;;;;5054281;28;20049;-71
2022/10/12 06:59:56;;;;;;;11.52;6.47;;;7.30;99.90;;;;;;5053073;28;20056;-71
2022/10/12 07:02:23;;;;;;;9.30;6.53;;;7.20;99.90;;;;;;5053042;28;20057;-71
2022/10/12 07:04:51;;;;;;;11.88;6.40;;;7.30;99.90;;;;;;5036397;28;20128;-71
2022/10/12 07:07:17;;;;;;;15.20;6.60;;;7.30;99.90;;;;;;5053664;28;20497;-71
2022/10/12 07:09:43;;;;;;;15.10;8.60;;;;;;;;;;5052412;28;20068;-70
2022/10/12 07:12:09;;;;;;;14.90;7.20;;;7.40;99.90;;;;;;5053779;28;20084;-71
2022/10/12 07:14:34;;;;;;;12.93;6.63;;;7.40;99.90;;;;;;5052679;28;20091;-71
2022/10/12 07:17:00;;;;;;;13.68;6.60;;;7.50;99.90;;;;;;5052650;28;20370;-70
2022/10/12 07:19:26;;;;;;;10.57;6.13;;;8.10;99.90;;;;;;5053606;28;20049;-71
2022/10/12 07:21:51;;;;;;;11.27;5.60;;;7.70;99.90;;;;;;5052982;28;20048;-71
2022/10/12 07:24:17;;;;;;;11.57;5.88;;;7.50;99.90;;;;;;5052775;28;20049;-71
2022/10/12 07:26:43;;;;;;;12.27;6.53;;;7.70;99.90;;;;;;5052489;28;20052;-71
2022/10/12 07:29:09;;;;;;;12.07;5.50;;;7.80;99.90;;;;;;5053718;28;20078;-71
2022/10/12 07:31:35;;;;;;;9.10;5.53;;;8.20;99.90;;;;;;5052180;28;20093;-71
2022/10/12 07:34:01;;;;;;;11.18;4.82;;;7.80;99.90;;;;;;5053600;28;20053;-70
2022/10/12 07:36:27;;;;;;;9.73;5.55;;;7.90;99.90;;;;;;5052163;28;20071;-70
2022/10/12 07:38:52;;;;;;;9.70;4.95;;;7.90;99.90;;;;;;5052339;28;20133;-70
2022/10/12 07:41:18;;;;;;;8.93;5.00;;;8.20;99.90;;;;;;5053783;28;20041;-70
2022/10/12 07:43:44;;;;;;;8.63;5.38;;;8.20;99.90;;;;;;5052442;28;20090;-71
2022/10/12 07:46:10;;;;;;;11.23;5.43;;;8.20;99.90;;;;;;5052050;28;20056;-71
2022/10/12 07:48:36;;;;;;;7.68;4.50;;;8.60;99.90;;;;;;5053479;28;20049;-71
2022/10/12 07:51:04;;;;;;;8.20;4.80;;;8.20;99.90;;;;;;5053309;28;20052;-70
2022/10/12 07:53:30;;;;;;;8.00;4.47;;;8.20;99.90;;;;;;5053076;28;20098;-70
2022/10/12 07:56:01;;;;;;;7.40;4.35;;;8.20;99.90;;;;;;5052315;28;20057;-70
2022/10/12 07:58:27;;;;;;;11.80;4.63;;;8.50;99.90;;;;;;5053080;28;20084;-70
2022/10/12 08:00:52;;;;;;;8.95;4.63;;;8.10;99.90;;;;;;5052970;28;20087;-71
2022/10/12 08:03:18;;;;;;;11.82;4.57;;;8.40;99.90;;;;;;5053450;28;20049;-70
2022/10/12 08:05:44;;;;;;;10.93;4.53;;;8.70;99.90;;;;;;5052846;28;20128;-70
2022/10/12 08:08:10;;;;;;;9.75;4.97;;;8.60;99.90;;;;;;5051988;28;20057;-72
2022/10/12 08:10:36;;;;;;;7.88;4.57;;;8.60;99.90;;;;;;5053251;28;20049;-70
2022/10/12 08:13:02;;;;;;;9.52;4.68;;;8.70;99.90;;;;;;5053108;28;20106;-71
2022/10/12 08:15:28;;;;;;;9.98;4.10;;;8.70;99.90;;;;;;5035194;28;20087;-70
2022/10/12 08:17:54;;;;;;;8.75;4.22;;;8.80;99.90;;;;;;5052144;28;20049;-71
2022/10/12 08:20:19;;;;;;;10.38;4.07;;;9.10;99.90;;;;;;5053064;28;20049;-70
2022/10/12 08:22:45;;;;;;;12.43;4.35;;;9.00;99.90;;;;;;5035434;28;20064;-70
2022/10/12 08:25:11;;;;;;;7.63;4.25;;;9.00;99.90;;;;;;5035562;28;20052;-70
2022/10/12 08:27:37;;;;;;;8.05;4.10;;;9.40;99.90;;;;;;5035472;28;20405;-70
2022/10/12 08:30:06;;;;;;;9.02;3.83;;;9.00;99.90;;;;;;5052770;28;20045;-71
2022/10/12 08:32:32;;;;;;;10.35;4.40;;;9.20;99.90;;;;;;5052913;28;20088;-70
2022/10/12 08:34:58;;;;;;;10.60;3.85;;;8.90;99.90;;;;;;5051629;28;20167;-70
2022/10/12 08:37:23;;;;;;;7.25;3.63;;;8.80;99.90;;;;;;5052782;28;20037;-70
2022/10/12 08:39:50;;;;;;;7.20;3.75;;;9.20;99.90;;;;;;5035178;28;20606;-70
2022/10/12 08:42:36;;;;;;;10.60;4.13;;;9.20;99.90;;;;;;5051968;28;20128;-69
2022/10/12 08:45:20;;;;;;;7.75;3.65;;;9.20;99.90;;;;;;5053027;28;20044;-70
2022/10/12 08:47:50;;;;;;;;;;;9.20;99.90;;;;;;5053450;28;20049;-69
2022/10/12 08:50:32;;;;;;;11.02;3.65;;;9.30;99.90;;;;;;5052796;28;20391;-69
2022/10/12 08:53:16;;;;;;;11.75;3.83;;;9.30;99.90;;;;;;5035182;28;20053;-69
2022/10/12 08:55:44;;;;;;;11.30;3.67;;;8.90;99.90;;;;;;5052246;28;20365;-70
2022/10/12 08:58:16;;;;;;;7.05;3.42;;;9.80;99.90;;;;;;5052862;28;20049;-70
2022/10/12 09:00:46;;;;;;;9.00;3.63;;;9.60;99.90;;;;;;5052756;28;20462;-70
2022/10/12 09:03:54;;;;;;;12.00;3.78;;;9.40;99.90;;;;;;5052716;28;20053;-69
2022/10/12 09:06:23;;;;;;;11.95;4.05;;;9.60;99.90;;;;;;5052807;28;20064;-69
2022/10/12 09:09:13;;;;;;;6.28;3.78;;;9.60;99.90;;;;;;5056240;28;20068;-70
2022/10/12 09:11:59;;;;;;;8.50;3.38;;;9.80;99.90;;;;;;5056221;28;20067;-70
2022/10/12 09:14:32;;;;;;;8.20;3.13;;;9.90;99.90;;;;;;5056500;28;20045;-69
2022/10/12 09:17:01;;;;;;;6.82;3.95;;;9.90;99.90;;;;;;5056495;28;20131;-70
2022/10/12 09:19:40;;;;;;;8.93;3.60;;;10.10;99.90;;;;;;5056383;28;20051;-70
2022/10/12 09:22:17;;;;;;;9.70;2.83;;;10.10;99.90;;;;;;5058277;28;20033;-71
2022/10/12 09:24:44;;;;;;;8.68;3.47;;;10.40;99.90;;;;;;5062377;28;20048;-70
2022/10/12 09:27:15;;;;;;;9.00;3.45;;;10.50;99.90;;;;;;5065500;28;20419;-71
2022/10/12 09:29:46;;;;;;;8.52;3.15;;;10.40;99.90;;;;;;5065295;28;20048;-71
2022/10/12 09:32:35;;;;;;;7.10;3.45;;;10.40;99.90;;;;;;5065898;28;20077;-71
2022/10/12 09:35:02;;;;;;;9.63;3.13;;;10.70;99.90;;;;;;5067045;28;20047;-71
2022/10/12 09:37:31;;;;;;;8.43;2.47;;;10.70;99.90;;;;;;5064987;28;20124;-71
2022/10/12 09:39:57;;;;;;;7.03;2.75;;;10.70;99.90;;;;;;5064318;28;20059;-71
2022/10/12 09:42:23;;;;;;;6.28;2.78;;;10.80;99.90;;;;;;5065730;28;20045;-71
2022/10/12 09:44:55;;;;;;;9.05;2.90;;;11.00;99.90;;;;;;5054978;28;20048;-71
2022/10/12 09:47:25;;;;;;;9.82;2.78;;;10.90;99.90;;;;;;5062541;28;20076;-70
2022/10/12 09:49:53;;;;;;;6.82;3.15;;;11.10;99.90;;;;;;5062284;28;20087;-70
2022/10/12 09:52:22;;;;;;;8.57;2.90;;;11.20;99.90;;;;;;5065686;28;20072;-70
2022/10/12 09:54:52;;;;;;;6.00;2.58;;;11.10;99.90;;;;;;5080706;28;20056;-71
2022/10/12 09:57:21;;;;;;;9.02;2.70;;;11.20;99.90;;;;;;5062811;28;20481;-71
2022/10/12 09:59:48;;;;;;;6.53;2.55;;;11.20;99.90;;;;;;5064949;28;20048;-70
2022/10/12 10:02:18;;;;;;;8.90;2.95;;;11.20;99.90;;;;;;5065661;28;20048;-70
2022/10/12 10:04:46;;;;;;;9.20;2.63;;;11.20;99.90;;;;;;5060487;28;20098;-71
2022/10/12 10:07:29;;;;;;;9.07;3.03;;;11.30;99.90;;;;;;5064145;28;20043;-70
2022/10/12 10:10:04;;;;;;;6.10;2.53;;;;;;;;;;5064882;28;20053;-71
2022/10/12 10:12:30;;;;;;;8.90;3.25;;;;;;;;;;5065972;28;20083;-71
2022/10/12 10:14:57;;;;;;;10.63;2.70;;;;;;;;;;5067555;28;20044;-71
2022/10/12 10:17:25;;;;;;;9.43;2.42;;;;;;;;;;5065420;28;20072;-70
2022/10/12 10:19:52;;;;;;;6.75;2.53;;;;;;;;;;5063903;28;20464;-71
2022/10/12 10:22:19;;;;;;;11.73;2.58;;;;;;;;;;5064375;28;20041;-71
2022/10/12 10:24:58;;;;;;;12.38;2.90;;;;;;;;;;5064092;28;20049;-71
2022/10/12 10:27:27;;;;;;;11.60;2.80;;;;;;;;;;5060568;28;20396;-71
2022/10/12 10:30:07;;;;;;;7.93;2.55;;;;;;;;;;5060619;28;20128;-71
2022/10/12 10:32:33;;;;;;;8.50;2.47;;;;;;;;;;5078725;28;20048;-71
2022/10/12 10:35:20;;;;;;;10.60;2.40;;;;;;;;;;5061240;28;20040;-71
2022/10/12 10:38:06;;;;;;;8.07;2.05;;;;;;;;;;5062177;28;20068;-70
2022/10/12 10:40:52;;;;;;;6.55;1.70;;;;;;;;;;5064581;28;20036;-71
2022/10/12 10:43:37;;;;;;;6.50;1.48;;;;;;;;;;5059954;28;20186;-71
2022/10/12 10:46:29;;;;;;;3.95;1.40;;;11.70;99.90;;;;;;5061391;28;20126;-71
2022/10/12 10:49:05;;;;;;;5.43;1.77;;;12.10;99.90;;;;;;5076771;28;20048;-71
2022/10/12 10:51:45;;;;;;;8.35;2.17;;;12.00;99.90;;;;;;5044697;28;20043;-71
2022/10/12 10:54:30;;;;;;;10.10;1.75;;;12.10;99.90;;;;;;5061502;28;20124;-71
2022/10/12 10:57:03;;;;;;;6.63;1.60;;;12.10;99.90;;;;;;5060888;28;20044;-72
2022/10/12 10:59:39;;;;;;;5.32;1.60;;;12.20;99.90;;;;;;5061337;28;20040;-71
2022/10/12 11:02:20;;;;;;;3.88;1.33;;;12.20;99.90;;;;;;5063172;28;20037;-70
2022/10/12 11:04:51;;;;;;;7.65;1.85;;;12.20;99.90;;;;;;5079434;28;20053;-70
2022/10/12 11:07:34;;;;;;;6.63;1.60;;;12.40;99.90;;;;;;5060768;28;20473;-70
2022/10/12 11:10:04;;;;;;;6.57;1.53;;;12.20;99.90;;;;;;5062383;28;20435;-70
2022/10/12 11:12:36;;;;;;;7.93;1.58;;;12.30;99.90;;;;;;5061462;28;20299;-71
2022/10/12 11:15:14;;;;;;;6.10;1.48;;;12.40;99.90;;;;;;5063258;28;20114;-71
2022/10/12 11:17:45;;;;;;;8.02;1.40;;;12.40;99.90;;;;;;5060770;28;20045;-71
2022/10/12 11:20:28;;;;;;;5.30;1.10;;;12.50;99.90;;;;;;5062372;28;20045;-70
2022/10/12 11:23:00;;;;;;;5.28;1.10;;;12.50;99.90;;;;;;5060543;28;20037;-71
2022/10/12 11:25:37;;;;;;;4.80;1.20;;;12.80;99.90;;;;;;5061565;28;20056;-71
2022/10/12 11:28:05;;;;;;;3.40;1.00;;;12.70;99.90;;;;;;5033465;28;20388;-71
2022/10/12 11:30:42;;;;;;;4.72;0.82;;;12.70;99.90;;;;;;5033944;28;20056;-70
2022/10/12 11:33:18;;;;;;;4.88;0.95;;;12.80;99.90;;;;;;5033814;28;20041;-70
2022/10/12 11:35:45;;;;;;;7.05;1.20;;;12.80;99.90;;;;;;5032682;28;20037;-71
2022/10/12 11:38:32;;;;;;;6.50;1.30;;;12.70;99.90;;;;;;5049172;28;20549;-71
2022/10/12 11:41:10;;;;;;;4.05;0.90;;;12.80;99.90;;;;;;5032775;28;20064;-71
2022/10/12 11:43:59;;;;;;;4.53;1.00;;;12.70;99.90;;;;;;5034000;28;20045;-71
2022/10/12 11:46:40;;;;;;;4.35;1.45;;;13.00;99.90;;;;;;5032435;28;20048;-71
2022/10/12 11:49:33;;;;;;;4.63;0.93;;;12.90;99.90;;;;;;5033710;28;20049;-70
2022/10/12 11:52:04;;;;;;;6.03;1.27;;;12.80;99.90;;;;;;5033494;28;20041;-70
2022/10/12 11:54:38;;;;;;;8.50;1.90;;;13.00;99.90;;;;;;5033386;28;20493;-71
2022/10/12 11:57:10;;;;;;;4.38;1.05;;;14.60;99.90;;;;;;5033542;28;20037;-70
2022/10/12 11:59:36;;;;;;;4.10;0.83;;;13.20;99.90;;;;;;5033651;28;20044;-70
2022/10/12 12:02:22;;;;;;;4.90;0.70;;;13.10;99.90;;;;;;5033715;28;20050;-70
2022/10/12 12:04:49;;;;;;;4.55;0.98;;;13.10;99.90;;;;;;5033391;28;20135;-71
2022/10/12 12:07:44;;;;;;;5.00;0.70;;;13.10;99.90;;;;;;5032233;28;20489;-71
2022/10/12 12:10:25;;;;;;;3.53;0.85;;;13.10;99.90;;;;;;5048629;28;20050;-70
2022/10/12 12:13:11;;;;;;;4.78;0.75;;;13.50;99.90;;;;;;5033176;28;20436;-70
2022/10/12 12:15:51;;;;;;;3.42;0.70;;;13.30;99.90;;;;;;5032373;28;20046;-70
2022/10/12 12:18:26;;;;;;;4.43;0.85;;;13.30;99.90;;;;;;5033457;28;20045;-71
2022/10/12 12:21:07;;;;;;;3.90;0.80;;;13.20;99.90;;;;;;5032262;28;20057;-71
2022/10/12 12:23:38;;;;;;;2.83;0.95;;;13.30;99.90;;;;;;5039637;28;20409;-70
2022/10/12 12:26:10;;;;;;;4.40;0.90;;;13.10;99.90;;;;;;5056917;28;20056;-71
2022/10/12 12:28:39;;;;;;;6.68;1.20;;;13.30;99.90;;;;;;5061618;28;20045;-72
2022/10/12 12:31:16;;;;;;;3.97;0.90;;;13.30;99.90;;;;;;5062937;28;20068;-71
2022/10/12 12:33:45;;;;;;;2.72;1.10;;;13.40;99.90;;;;;;5058406;28;20057;-71
2022/10/12 12:36:31;;;;;;;6.80;0.85;;;13.30;99.90;;;;;;5061849;28;20120;-71
2022/10/12 12:38:57;;;;;;;5.20;0.80;;;13.50;99.90;;;;;;5080169;28;20480;-71
2022/10/12 12:41:49;;;;;;;4.30;1.00;;;13.50;99.90;;;;;;5065857;28;20124;-70
2022/10/12 12:44:32;;;;;;;5.78;1.60;;;13.60;99.90;;;;;;5063903;28;20053;-71
2022/10/12 12:47:01;;;;;;;5.05;1.08;;;13.40;99.90;;;;;;5067205;28;20052;-72
2022/10/12 12:49:37;;;;;;;3.53;1.10;;;13.70;99.90;;;;;;5065188;28;20102;-71
2022/10/12 12:52:18;;;;;;;7.63;0.95;;;13.70;99.90;;;;;;5063225;28;20041;-71
2022/10/12 12:55:12;;;;;;;5.82;1.40;;;13.60;99.90;;;;;;5063445;28;20045;-71
2022/10/12 12:57:40;;;;;;;5.40;1.10;;;13.70;99.90;;;;;;5056584;28;20075;-71
2022/10/12 13:00:17;;;;;;;4.07;1.00;;;13.70;99.90;;;;;;5066078;28;20084;-71
2022/10/12 13:02:58;;;;;;;3.83;1.13;;;13.70;99.90;;;;;;5041597;28;20057;-70
2022/10/12 13:06:09;;;;;;;5.35;1.02;;;13.70;99.90;;;;;;5060158;28;20051;-71
2022/10/12 13:08:55;;;;;;;6.07;1.10;;;13.80;99.90;;;;;;5029243;28;20420;-71
2022/10/12 13:11:30;;;;;;;4.90;0.93;;;13.80;99.90;;;;;;5062207;28;20049;-71
2022/10/12 13:14:33;;;;;;;6.53;1.00;;;13.70;99.90;;;;;;5064142;28;20392;-71
2022/10/12 13:17:20;;;;;;;4.68;0.90;;;13.80;99.90;;;;;;5066540;28;20079;-71
2022/10/12 13:19:46;;;;;;;4.93;0.95;;;13.80;99.90;;;;;;5062372;28;20085;-71
2022/10/12 13:22:31;;;;;;;4.60;0.93;;;13.70;99.90;;;;;;5065118;28;20076;-70